Athol, ID

2:00 PM PST on January 20, 2017 (GMT -0800)
North Idaho Prairie | | Change Station

Elev 2477 ft 47.94 °N, 116.74 °W | Updated 24 seconds ago

Partly Cloudy
Partly Cloudy
41.8 °F
Feels Like 38 °F
N
6.3
Wind Variable Wind from NNE
Gusts 7.0 mph

Today
High -- | Low -- °F
--% Chance of Precip.
Yesterday
High -- | Low -- °F
Precip. -- in
Pressure 29.36 in
Visibility 10.0 miles
Clouds Clear
Windchill 38 °F
Dew Point 37 °F
Humidity 80%
Rainfall 0.02 in
Snow Depth Not available.
7:27 AM 4:29 PM
Last Quarter, 41% visible
METAR KCOE 202156Z AUTO 02010KT 10SM CLR 05/01 A2927 RMK AO2 SLP942 T00500006
Pressure 29.36 in
Visibility 10.0 miles
Clouds Clear
Windchill 38 °F
Dew Point 37 °F
Humidity 80%
Rainfall 0.02 in
Snow Depth Not available.
7:27 AM 4:29 PM
Last Quarter, 41% visible
METAR KCOE 202156Z AUTO 02010KT 10SM CLR 05/01 A2927 RMK AO2 SLP942 T00500006

Get Your Daily Forecast Email!

Thanks for signing up!

Be on the lookout for a verification email in your inbox.

You'll start receiving the daily forecast at 8 AM.

×

10-Day Weather Forecast

Almanac

Astronomy

Jan. 20, 2017 Rise Set
Actual Time
Civil Twilight
Nautical Twilight
Astronomical Twilight
Moon
Length of Visible Light
Length of Day
Tomorrow will be .
, % of the Moon is Illuminated

Today's Extremes

State Highs State Lows

Community

WunderPhotos

Upload Photos

1,962,540 photos uploaded!

WunderBlog® & News

Nearby

Air Quality

  Air Quality AQ Index Pollutant
Not available.

Snow Depth

Station Depth Elevation

Earthquake Activity

City Distance Mag. Time & Date
Minimum magnitude displayed is 2.5.

Coastal Water Temperatures

Place Temperature

Stations

Nearby Weather Stations

Station Location Temp. Windchill Dew Point Humidity Wind Precip. Elev Updated Type
                   

Watches & Warnings

There are currently no watches in effect.